KBNA/BNA METAR and TAF weather

Enter ICAO airport designator
Station Type Date Time Source
KBNA METAR 2021/09/23 16:53 UTC NOAA

KBNA 231653Z 31010G19KT 10SM FEW044 20/05 A3012 RMK AO2 SLP196 T02000050 $


Station Type Date Time Source
KBNA Decoded METAR 2021/09/23 16:53 UTC NOAA

NASHVILLE INTERNATIONAL AIRPORT, TN, United States (KBNA) 36-07N 086-41W 210M
Sep 23, 2021 - 12:53 PM EDT / 2021.09.23 1653 UTC
Wind: from the NW (310 degrees) at 12 MPH (10 KT) gusting to 22 MPH (19 KT):0
Visibility: 10 mile(s):0
Sky conditions: mostly clear
Temperature: 68.0 F (20.0 C)
Dew Point: 41.0 F (5.0 C)
Relative Humidity: 37%
Pressure (altimeter): 30.12 in. Hg (1019 hPa)
ob: KBNA 231653Z 31010G19KT 10SM FEW044 20/05 A3012 RMK AO2 SLP196 T02000050
cycle: 17

Station Type Date Time Source
KBNA TAF 2021/09/23 18:36 UTC NOAA

TAF KBNA 231733Z 2318/2418 31010G20KT P6SM FEW045
FM240000 VRB03KT P6SM SKC
FM240700 00000KT 6SM BR BCFG SKC
FM241300 19002KT P6SM SKC

Example: see airport list